createdAt,value
2018-07-11T00:04:29.162Z,39.99
2018-07-11T00:09:32.638Z,40.07
2018-07-11T00:14:36.113Z,39.97
2018-07-11T00:19:39.577Z,39.33
2018-07-11T00:24:43.006Z,39.89
2018-07-11T00:29:46.857Z,39.66
2018-07-11T00:34:50.297Z,39.75
2018-07-11T00:39:53.816Z,39.66
2018-07-11T00:44:57.508Z,39.62
2018-07-11T00:50:01.376Z,39.62
2018-07-11T00:55:04.931Z,39.39
2018-07-11T01:00:08.537Z,39.27
2018-07-11T01:05:12.098Z,38.64
2018-07-11T01:10:15.637Z,38.56
2018-07-11T01:15:19.474Z,38.67
2018-07-11T01:20:23.026Z,39.04
2018-07-11T01:25:26.537Z,38.52
2018-07-11T01:30:30.069Z,38.83
2018-07-11T01:35:33.673Z,38.83
2018-07-11T01:40:37.153Z,38.74
2018-07-11T01:45:40.714Z,38.39
2018-07-11T01:50:44.254Z,38.23
2018-07-11T01:55:47.710Z,38.74
2018-07-11T02:00:51.448Z,38.48
2018-07-11T02:05:55.483Z,38.34
2018-07-11T02:10:59.497Z,38.50
2018-07-11T02:16:03.023Z,38.92
2018-07-11T02:21:07.336Z,38.87
2018-07-11T02:26:10.873Z,39.17
2018-07-11T02:31:14.337Z,39.27
2018-07-11T02:36:17.746Z,38.88
2018-07-11T02:41:21.493Z,38.79
2018-07-11T02:46:30.143Z,39.34
2018-07-11T02:51:33.577Z,39.25
2018-07-11T02:56:37.171Z,39.48
2018-07-11T03:01:40.665Z,39.10
2018-07-11T03:06:44.286Z,39.26
2018-07-11T03:11:48.035Z,38.97
2018-07-11T03:16:51.788Z,39.32
2018-07-11T03:21:55.374Z,39.06
2018-07-11T03:26:59.187Z,39.50
2018-07-11T03:32:02.730Z,39.10
2018-07-11T03:37:06.606Z,39.39
2018-07-11T03:42:10.169Z,39.43
2018-07-11T03:47:13.871Z,39.64
2018-07-11T03:52:17.469Z,40.26
2018-07-11T03:57:21.004Z,40.04
2018-07-11T04:02:24.609Z,39.99
2018-07-11T04:07:28.053Z,40.59
2018-07-11T04:12:31.540Z,40.55
2018-07-11T04:17:35.063Z,41.32
2018-07-11T04:22:38.602Z,41.27
2018-07-11T04:27:42.093Z,41.91
2018-07-11T04:32:45.845Z,41.74
2018-07-11T04:37:49.322Z,42.17
2018-07-11T04:42:52.812Z,42.45
2018-07-11T04:47:56.260Z,43.15
2018-07-11T04:53:02.483Z,42.96
2018-07-11T04:58:06.388Z,43.15
2018-07-11T05:03:09.852Z,43.34
2018-07-11T05:08:13.399Z,43.49
2018-07-11T05:13:17.079Z,43.80
2018-07-11T05:18:20.545Z,44.60
2018-07-11T05:23:23.960Z,45.12
2018-07-11T05:28:27.618Z,45.36
2018-07-11T05:33:31.078Z,45.29
2018-07-11T05:38:34.557Z,45.63
2018-07-11T05:43:38.305Z,45.49
2018-07-11T05:48:41.917Z,46.29
2018-07-11T05:53:45.639Z,46.13
2018-07-11T05:58:49.658Z,46.28
2018-07-11T06:03:53.113Z,45.76
2018-07-11T06:08:56.699Z,45.98
2018-07-11T06:14:00.398Z,46.30
2018-07-11T06:19:03.869Z,46.10
2018-07-11T06:24:07.728Z,46.38
2018-07-11T06:29:11.258Z,45.78
2018-07-11T06:34:14.689Z,45.70
2018-07-11T06:39:18.218Z,45.56
2018-07-11T06:44:21.630Z,45.40
2018-07-11T06:49:25.325Z,45.29
2018-07-11T06:54:28.842Z,45.02
2018-07-11T06:59:32.980Z,44.83
2018-07-11T07:04:36.507Z,44.37
2018-07-11T07:09:40.281Z,44.19
2018-07-11T07:14:43.927Z,43.98
2018-07-11T07:19:47.515Z,44.04
2018-07-11T07:24:51.150Z,44.16
2018-07-11T07:29:54.613Z,43.92
2018-07-11T07:34:58.104Z,44.36
2018-07-11T07:40:01.647Z,43.62
2018-07-11T07:45:05.149Z,43.89
2018-07-11T07:50:08.719Z,43.62
2018-07-11T07:55:12.557Z,43.33
2018-07-11T08:00:16.171Z,43.28
2018-07-11T08:05:19.667Z,43.13
2018-07-11T08:10:23.204Z,42.94
2018-07-11T08:15:26.718Z,42.91
2018-07-11T08:20:30.605Z,43.39
2018-07-11T08:25:45.833Z,43.50
2018-07-11T08:31:02.126Z,42.94
2018-07-11T08:38:27.742Z,43.23
2018-07-11T08:44:47.002Z,43.02
2018-07-11T08:50:02.479Z,42.90
2018-07-11T08:55:17.854Z,42.85
2018-07-11T09:01:05.673Z,43.31
2018-07-11T09:06:27.511Z,42.79
2018-07-11T09:12:14.778Z,43.29
2018-07-11T09:18:29.890Z,43.06
2018-07-11T09:24:45.415Z,43.20
2018-07-11T09:29:49.305Z,43.22
2018-07-11T09:34:52.730Z,43.20
2018-07-11T09:39:56.184Z,43.02
2018-07-11T09:44:59.913Z,41.91
2018-07-11T09:50:03.370Z,41.71
2018-07-11T09:55:07.427Z,41.55
2018-07-11T10:00:16.144Z,41.41
2018-07-11T10:05:19.621Z,41.55
2018-07-11T10:10:23.046Z,41.35
2018-07-11T10:15:26.463Z,41.90
2018-07-11T10:20:29.894Z,41.48
2018-07-11T10:25:33.481Z,41.85
2018-07-11T10:30:37.355Z,42.22
2018-07-11T10:35:41.292Z,42.34
2018-07-11T10:40:44.713Z,41.99
2018-07-11T10:45:48.161Z,41.56
2018-07-11T10:50:51.620Z,41.48
2018-07-11T10:55:55.440Z,41.72
2018-07-11T11:01:05.699Z,41.42
2018-07-11T11:06:03.099Z,41.80
2018-07-11T11:11:06.699Z,41.18
2018-07-11T11:16:10.218Z,41.53
2018-07-11T11:21:13.822Z,41.44
2018-07-11T11:26:17.355Z,41.45
2018-07-11T11:31:20.805Z,40.92
2018-07-11T11:36:24.375Z,40.58
2018-07-11T11:41:28.160Z,40.56
2018-07-11T11:46:31.545Z,40.71
2018-07-11T11:51:35.121Z,40.97
2018-07-11T11:56:38.552Z,40.22
2018-07-11T12:01:42.100Z,40.22
2018-07-11T12:06:45.676Z,41.08
2018-07-11T12:11:49.152Z,40.10
2018-07-11T12:16:52.859Z,39.58
2018-07-11T12:21:56.427Z,39.91
2018-07-11T12:26:59.925Z,40.70
2018-07-11T12:32:03.357Z,40.13
2018-07-11T12:37:06.761Z,40.10
2018-07-11T12:42:10.280Z,39.34
2018-07-11T12:47:19.022Z,39.00
2018-07-11T12:52:22.578Z,38.80
2018-07-11T12:57:26.290Z,38.69
2018-07-11T13:02:29.833Z,38.64
2018-07-11T13:07:33.385Z,38.52
2018-07-11T13:12:37.086Z,38.14
2018-07-11T13:17:40.565Z,38.71
2018-07-11T13:22:44.053Z,37.99
2018-07-11T13:27:47.626Z,38.07
2018-07-11T13:32:51.063Z,38.21
2018-07-11T13:37:54.662Z,39.09
2018-07-11T13:42:58.330Z,38.15
2018-07-11T13:48:02.179Z,38.05
2018-07-11T13:53:05.708Z,38.50
2018-07-11T13:58:10.078Z,38.55
2018-07-11T14:03:13.498Z,38.70
2018-07-11T14:08:16.982Z,38.27
2018-07-11T14:13:20.463Z,38.28
2018-07-11T14:18:24.004Z,37.67
2018-07-11T14:23:35.892Z,37.63
2018-07-11T14:28:47.266Z,38.30
2018-07-11T14:33:50.823Z,38.69
2018-07-11T14:38:54.418Z,37.81
2018-07-11T14:43:58.505Z,37.21
2018-07-11T14:49:02.082Z,36.64
2018-07-11T14:54:06.155Z,36.69
2018-07-11T14:59:09.582Z,36.97
2018-07-11T15:04:13.058Z,37.69
2018-07-11T15:09:16.915Z,38.89
2018-07-11T15:14:20.037Z,39.21
2018-07-11T15:19:23.531Z,38.85
2018-07-11T15:24:27.182Z,39.02
2018-07-11T15:29:31.043Z,38.51
2018-07-11T15:34:34.555Z,38.85
2018-07-11T15:39:38.394Z,39.44
2018-07-11T15:44:42.633Z,39.92
2018-07-11T15:49:46.114Z,39.96
2018-07-11T15:54:49.974Z,39.76
2018-07-11T16:00:01.587Z,40.36
2018-07-11T16:05:05.345Z,39.92
2018-07-11T16:10:08.801Z,39.72
2018-07-11T16:15:12.485Z,40.17
2018-07-11T16:20:15.918Z,40.02
2018-07-11T16:25:19.860Z,40.48
2018-07-11T16:30:23.437Z,39.70
2018-07-11T16:35:26.953Z,40.22
2018-07-11T16:40:31.533Z,39.76
2018-07-11T16:45:34.962Z,39.08
2018-07-11T16:50:38.461Z,39.27
2018-07-11T16:55:41.882Z,38.89
2018-07-11T17:00:45.550Z,39.40
2018-07-11T17:05:57.818Z,39.11
2018-07-11T17:11:22.763Z,39.17
2018-07-11T17:16:32.817Z,39.23
2018-07-11T17:21:43.954Z,39.22
2018-07-11T17:26:48.749Z,39.86
2018-07-11T17:31:55.166Z,40.00
2018-07-11T17:37:01.934Z,39.78
2018-07-11T17:42:06.561Z,40.07
2018-07-11T17:47:10.050Z,40.27
2018-07-11T17:52:14.113Z,40.33
2018-07-11T17:57:23.641Z,40.22
2018-07-11T18:02:32.001Z,40.07
2018-07-11T18:07:49.961Z,40.18
2018-07-11T18:12:57.110Z,40.48
2018-07-11T18:18:11.807Z,40.51
2018-07-11T18:25:33.871Z,40.21
2018-07-11T18:32:50.377Z,40.60
2018-07-11T18:37:59.480Z,40.89
2018-07-11T18:43:19.057Z,40.21
2018-07-11T18:48:34.222Z,40.32
2018-07-11T18:54:16.249Z,40.20
2018-07-11T19:01:34.934Z,40.29
2018-07-11T19:08:51.438Z,40.78
2018-07-11T19:14:00.034Z,40.55
2018-07-11T19:19:09.347Z,40.97
2018-07-11T19:24:20.826Z,40.51
2018-07-11T19:29:50.273Z,41.11
2018-07-11T19:35:07.926Z,41.12
2018-07-11T19:40:36.265Z,40.71
2018-07-11T19:46:03.871Z,40.58
2018-07-11T19:51:15.260Z,40.68
2018-07-11T19:56:28.125Z,41.26
2018-07-11T20:01:31.591Z,41.05
2018-07-11T20:06:35.074Z,41.05
2018-07-11T20:11:38.788Z,40.85
2018-07-11T20:16:42.390Z,41.00
2018-07-11T20:21:45.892Z,41.31
2018-07-11T20:26:49.637Z,41.11
2018-07-11T20:31:53.832Z,41.61
2018-07-11T20:36:58.101Z,41.71
2018-07-11T20:42:02.356Z,41.71
2018-07-11T20:47:05.768Z,41.79
2018-07-11T20:52:09.285Z,41.81
2018-07-11T20:57:12.756Z,41.81
2018-07-11T21:02:27.469Z,41.79
2018-07-11T21:07:53.891Z,41.87
2018-07-11T21:13:19.994Z,41.89
2018-07-11T21:19:09.245Z,41.42
2018-07-11T21:24:13.541Z,41.95
2018-07-11T21:29:16.992Z,41.91
2018-07-11T21:34:20.589Z,41.34
2018-07-11T21:39:24.107Z,41.85
2018-07-11T21:44:27.632Z,41.21
2018-07-11T21:49:31.138Z,41.24
2018-07-11T21:54:34.868Z,41.82
2018-07-11T21:59:38.330Z,41.72
2018-07-11T22:04:41.799Z,41.15
2018-07-11T22:09:45.359Z,41.24
2018-07-11T22:14:48.832Z,41.33
2018-07-11T22:19:51.211Z,41.46
2018-07-11T22:24:53.568Z,41.88
2018-07-11T22:29:56.004Z,41.41
2018-07-11T22:34:58.582Z,41.27
2018-07-11T22:40:00.938Z,41.24
2018-07-11T22:45:03.356Z,41.61
2018-07-11T22:50:06.351Z,41.38
2018-07-11T22:55:08.777Z,41.08
2018-07-11T23:00:11.323Z,41.54
2018-07-11T23:05:13.665Z,41.49
2018-07-11T23:10:16.038Z,41.17
2018-07-11T23:15:18.512Z,41.17
2018-07-11T23:20:20.908Z,41.53
2018-07-11T23:25:23.266Z,41.25
2018-07-11T23:30:25.640Z,41.09
2018-07-11T23:35:28.017Z,41.54
2018-07-11T23:40:30.410Z,41.29
2018-07-11T23:45:33.031Z,41.27
2018-07-11T23:50:35.545Z,41.00
2018-07-11T23:55:37.930Z,41.43
